sensor_id;sensor_type;location;lat;lon;timestamp;pressure;altitude;pressure_sealevel;temperature;humidity
60258;BME280;46115;44.484;11.314;2023-03-22T00:02:49;100305.53;;;11.63;81.68
60258;BME280;46115;44.484;11.314;2023-03-22T00:06:52;100302.28;;;11.58;81.44
60258;BME280;46115;44.484;11.314;2023-03-22T00:10:56;100301.19;;;11.46;81.75
60258;BME280;46115;44.484;11.314;2023-03-22T00:14:58;100305.53;;;11.63;82.47
60258;BME280;46115;44.484;11.314;2023-03-22T00:19:01;100306.22;;;11.51;81.25
60258;BME280;46115;44.484;11.314;2023-03-22T00:23:04;100308.00;;;11.50;81.60
60258;BME280;46115;44.484;11.314;2023-03-22T00:27:08;100312.97;;;11.56;82.42
60258;BME280;46115;44.484;11.314;2023-03-22T00:31:10;100302.97;;;11.46;81.96
60258;BME280;46115;44.484;11.314;2023-03-22T00:35:12;100303.97;;;11.43;81.81
60258;BME280;46115;44.484;11.314;2023-03-22T00:39:15;100306.97;;;11.37;81.84
60258;BME280;46115;44.484;11.314;2023-03-22T00:43:19;100299.53;;;11.44;81.96
60258;BME280;46115;44.484;11.314;2023-03-22T00:47:22;100295.50;;;11.37;81.50
60258;BME280;46115;44.484;11.314;2023-03-22T00:51:24;100288.78;;;11.31;82.32
60258;BME280;46115;44.484;11.314;2023-03-22T00:55:27;100296.13;;;11.26;82.42
60258;BME280;46115;44.484;11.314;2023-03-22T00:59:31;100301.91;;;11.33;82.70
60258;BME280;46115;44.484;11.314;2023-03-22T01:03:39;100268.75;;;11.10;82.80
60258;BME280;46115;44.484;11.314;2023-03-22T01:07:42;100280.91;;;11.14;82.93
60258;BME280;46115;44.484;11.314;2023-03-22T01:11:44;100278.66;;;11.06;82.93
60258;BME280;46115;44.484;11.314;2023-03-22T01:15:50;100285.09;;;11.18;83.11
60258;BME280;46115;44.484;11.314;2023-03-22T01:19:53;100278.66;;;11.06;84.08
60258;BME280;46115;44.484;11.314;2023-03-22T01:23:55;100270.81;;;11.05;83.45
60258;BME280;46115;44.484;11.314;2023-03-22T01:27:58;100272.16;;;10.96;83.63
60258;BME280;46115;44.484;11.314;2023-03-22T01:32:04;100262.00;;;10.88;83.72
60258;BME280;46115;44.484;11.314;2023-03-22T01:36:07;100261.47;;;10.82;84.49
60258;BME280;46115;44.484;11.314;2023-03-22T01:40:11;100254.84;;;10.90;84.42
60258;BME280;46115;44.484;11.314;2023-03-22T01:44:17;100264.13;;;10.82;84.36
60258;BME280;46115;44.484;11.314;2023-03-22T01:48:25;100266.69;;;10.83;84.61
60258;BME280;46115;44.484;11.314;2023-03-22T01:52:29;100264.66;;;10.88;84.19
60258;BME280;46115;44.484;11.314;2023-03-22T01:56:40;100261.81;;;10.76;84.48
60258;BME280;46115;44.484;11.314;2023-03-22T02:00:49;100259.59;;;10.84;84.37
60258;BME280;46115;44.484;11.314;2023-03-22T02:05:16;100269.66;;;10.77;84.31
60258;BME280;46115;44.484;11.314;2023-03-22T02:09:19;100257.38;;;10.76;83.83
60258;BME280;46115;44.484;11.314;2023-03-22T02:13:35;100253.16;;;10.72;84.38
60258;BME280;46115;44.484;11.314;2023-03-22T02:18:16;100255.50;;;10.78;84.15
60258;BME280;46115;44.484;11.314;2023-03-22T02:32:15;100249.28;;;10.79;84.68
60258;BME280;46115;44.484;11.314;2023-03-22T02:36:30;100248.09;;;10.85;84.57
60258;BME280;46115;44.484;11.314;2023-03-22T02:40:44;100251.25;;;10.91;83.83
60258;BME280;46115;44.484;11.314;2023-03-22T02:44:57;100251.94;;;10.95;83.67
60258;BME280;46115;44.484;11.314;2023-03-22T02:49:03;100254.84;;;10.90;83.43
60258;BME280;46115;44.484;11.314;2023-03-22T02:53:14;100258.59;;;10.86;84.03
60258;BME280;46115;44.484;11.314;2023-03-22T02:57:24;100248.63;;;10.74;84.95
60258;BME280;46115;44.484;11.314;2023-03-22T03:01:36;100243.69;;;10.68;84.66
60258;BME280;46115;44.484;11.314;2023-03-22T03:05:44;100245.38;;;10.69;84.08
60258;BME280;46115;44.484;11.314;2023-03-22T03:09:48;100257.38;;;10.76;84.19
60258;BME280;46115;44.484;11.314;2023-03-22T03:13:53;100247.75;;;10.58;84.49
60258;BME280;46115;44.484;11.314;2023-03-22T03:18:14;100262.34;;;10.65;84.71
60258;BME280;46115;44.484;11.314;2023-03-22T03:22:33;100239.22;;;10.53;84.67
60258;BME280;46115;44.484;11.314;2023-03-22T03:26:42;100267.81;;;10.62;84.58
60258;BME280;46115;44.484;11.314;2023-03-22T03:30:55;100265.75;;;10.67;84.91
60258;BME280;46115;44.484;11.314;2023-03-22T03:35:05;100269.66;;;10.60;84.67
60258;BME280;46115;44.484;11.314;2023-03-22T03:39:11;100264.47;;;10.58;85.24
60258;BME280;46115;44.484;11.314;2023-03-22T03:43:16;100225.56;;;10.27;85.59
60258;BME280;46115;44.484;11.314;2023-03-22T03:47:20;100267.34;;;10.54;85.23
60258;BME280;46115;44.484;11.314;2023-03-22T03:51:25;100268.84;;;10.75;84.18
60258;BME280;46115;44.484;11.314;2023-03-22T03:55:29;100270.44;;;10.79;83.98
60258;BME280;46115;44.484;11.314;2023-03-22T03:59:32;100279.25;;;10.96;82.79
60258;BME280;46115;44.484;11.314;2023-03-22T04:03:41;100283.38;;;11.17;81.40
60258;BME280;46115;44.484;11.314;2023-03-22T04:07:44;100282.63;;;11.15;81.84
60258;BME280;46115;44.484;11.314;2023-03-22T04:11:46;100295.38;;;11.07;82.03
60258;BME280;46115;44.484;11.314;2023-03-22T04:15:54;100292.38;;;10.97;82.56
60258;BME280;46115;44.484;11.314;2023-03-22T04:19:59;100295.28;;;10.75;83.75
60258;BME280;46115;44.484;11.314;2023-03-22T04:24:04;100295.63;;;10.69;83.41
60258;BME280;46115;44.484;11.314;2023-03-22T04:28:11;100286.00;;;10.51;85.00
60258;BME280;46115;44.484;11.314;2023-03-22T04:32:17;100289.44;;;10.53;84.62
60258;BME280;46115;44.484;11.314;2023-03-22T04:36:25;100287.47;;;10.39;84.92
60258;BME280;46115;44.484;11.314;2023-03-22T04:40:51;100290.13;;;10.39;85.42
60258;BME280;46115;44.484;11.314;2023-03-22T04:45:02;100267.06;;;10.25;85.58
60258;BME280;46115;44.484;11.314;2023-03-22T04:49:05;100293.50;;;10.43;85.06
60258;BME280;46115;44.484;11.314;2023-03-22T04:53:13;100295.34;;;10.41;85.29
60258;BME280;46115;44.484;11.314;2023-03-22T04:57:17;100286.69;;;10.37;85.92
60258;BME280;46115;44.484;11.314;2023-03-22T05:01:23;100296.13;;;10.43;85.06
60258;BME280;46115;44.484;11.314;2023-03-22T05:05:35;100296.81;;;10.46;84.70
60258;BME280;46115;44.484;11.314;2023-03-22T05:09:40;100295.56;;;10.36;85.30
60258;BME280;46115;44.484;11.314;2023-03-22T05:13:43;100294.25;;;10.27;85.75
60258;BME280;46115;44.484;11.314;2023-03-22T05:17:46;100303.50;;;10.36;85.39
60258;BME280;46115;44.484;11.314;2023-03-22T05:21:49;100304.91;;;10.43;86.41
60258;BME280;46115;44.484;11.314;2023-03-22T05:26:02;100304.81;;;10.27;86.44
60258;BME280;46115;44.484;11.314;2023-03-22T05:30:07;100301.56;;;10.22;86.18
60258;BME280;46115;44.484;11.314;2023-03-22T05:34:20;100310.09;;;10.27;86.14
60258;BME280;46115;44.484;11.314;2023-03-22T05:38:22;100309.34;;;10.43;86.30
60258;BME280;46115;44.484;11.314;2023-03-22T05:42:29;100311.59;;;10.50;85.88
60258;BME280;46115;44.484;11.314;2023-03-22T05:46:33;100313.19;;;10.36;85.85
60258;BME280;46115;44.484;11.314;2023-03-22T05:51:15;100317.13;;;10.46;85.81
60258;BME280;46115;44.484;11.314;2023-03-22T05:55:23;100314.47;;;10.46;85.41
60258;BME280;46115;44.484;11.314;2023-03-22T05:59:31;100323.00;;;10.51;85.54
60258;BME280;46115;44.484;11.314;2023-03-22T06:03:35;100329.00;;;10.54;85.54
60258;BME280;46115;44.484;11.314;2023-03-22T06:07:47;100333.41;;;10.71;85.08
60258;BME280;46115;44.484;11.314;2023-03-22T06:11:51;100334.94;;;10.92;84.46
60258;BME280;46115;44.484;11.314;2023-03-22T06:15:58;100326.25;;;10.90;83.73
60258;BME280;46115;44.484;11.314;2023-03-22T06:20:01;100329.78;;;11.07;83.15
60258;BME280;46115;44.484;11.314;2023-03-22T06:24:09;100332.56;;;11.04;82.47
60258;BME280;46115;44.484;11.314;2023-03-22T06:28:12;100338.25;;;11.13;82.58
60258;BME280;46115;44.484;11.314;2023-03-22T06:32:24;100347.34;;;11.41;81.25
60258;BME280;46115;44.484;11.314;2023-03-22T06:36:28;100340.19;;;11.59;80.22
60258;BME280;46115;44.484;11.314;2023-03-22T06:40:40;100340.53;;;11.68;80.27
60258;BME280;46115;44.484;11.314;2023-03-22T06:44:43;100326.06;;;11.91;79.71
60258;BME280;46115;44.484;11.314;2023-03-22T06:49:16;100344.31;;;12.11;79.29
60258;BME280;46115;44.484;11.314;2023-03-22T06:53:20;100344.19;;;12.29;77.99
60258;BME280;46115;44.484;11.314;2023-03-22T06:57:23;100344.03;;;12.62;77.68
60258;BME280;46115;44.484;11.314;2023-03-22T07:01:25;100356.31;;;12.93;74.95
60258;BME280;46115;44.484;11.314;2023-03-22T07:05:29;100360.84;;;12.91;74.64
60258;BME280;46115;44.484;11.314;2023-03-22T07:09:32;100366.13;;;13.35;74.55
60258;BME280;46115;44.484;11.314;2023-03-22T07:13:34;100363.63;;;13.74;72.66
60258;BME280;46115;44.484;11.314;2023-03-22T07:17:43;100367.88;;;13.77;72.33
60258;BME280;46115;44.484;11.314;2023-03-22T07:21:47;100363.66;;;14.01;71.51
60258;BME280;46115;44.484;11.314;2023-03-22T07:25:51;100369.22;;;14.11;70.76
60258;BME280;46115;44.484;11.314;2023-03-22T07:30:03;100375.84;;;14.85;68.27
60258;BME280;46115;44.484;11.314;2023-03-22T07:34:10;100373.09;;;15.37;65.59
60258;BME280;46115;44.484;11.314;2023-03-22T07:38:31;100378.06;;;15.80;64.63
60258;BME280;46115;44.484;11.314;2023-03-22T07:42:34;100368.19;;;15.44;64.39
60258;BME280;46115;44.484;11.314;2023-03-22T07:46:54;100381.09;;;15.37;64.56
60258;BME280;46115;44.484;11.314;2023-03-22T07:51:06;100376.66;;;15.87;64.27
60258;BME280;46115;44.484;11.314;2023-03-22T07:55:12;100375.66;;;17.19;60.94
60258;BME280;46115;44.484;11.314;2023-03-22T07:59:15;100383.06;;;17.15;60.44
60258;BME280;46115;44.484;11.314;2023-03-22T08:03:18;100380.66;;;18.97;55.94
60258;BME280;46115;44.484;11.314;2023-03-22T08:07:44;100385.56;;;18.92;54.14
60258;BME280;46115;44.484;11.314;2023-03-22T08:11:49;100386.25;;;17.98;56.13
60258;BME280;46115;44.484;11.314;2023-03-22T08:15:52;100390.00;;;17.96;55.31
60258;BME280;46115;44.484;11.314;2023-03-22T08:19:55;100391.31;;;19.81;51.94
60258;BME280;46115;44.484;11.314;2023-03-22T08:24:10;100398.97;;;20.83;47.97
60258;BME280;46115;44.484;11.314;2023-03-22T08:28:17;100398.13;;;21.49;47.45
60258;BME280;46115;44.484;11.314;2023-03-22T08:32:20;100406.75;;;22.62;44.41
60258;BME280;46115;44.484;11.314;2023-03-22T08:36:23;100403.19;;;22.44;43.54
60258;BME280;46115;44.484;11.314;2023-03-22T08:40:34;100406.41;;;22.48;41.98
60258;BME280;46115;44.484;11.314;2023-03-22T08:44:38;100401.91;;;23.27;41.49
60258;BME280;46115;44.484;11.314;2023-03-22T08:48:42;100410.41;;;24.35;39.67
60258;BME280;46115;44.484;11.314;2023-03-22T08:52:54;100362.81;;;25.07;37.29
60258;BME280;46115;44.484;11.314;2023-03-22T08:57:01;100413.06;;;26.20;36.42
60258;BME280;46115;44.484;11.314;2023-03-22T09:01:16;100409.03;;;27.68;34.10
60258;BME280;46115;44.484;11.314;2023-03-22T09:05:31;100406.69;;;29.09;31.45
60258;BME280;46115;44.484;11.314;2023-03-22T09:09:34;100413.88;;;30.07;29.92
60258;BME280;46115;44.484;11.314;2023-03-22T09:13:37;100407.44;;;28.97;30.76
60258;BME280;46115;44.484;11.314;2023-03-22T09:17:41;100424.84;;;30.95;28.33
60258;BME280;46115;44.484;11.314;2023-03-22T09:21:43;100422.09;;;31.01;27.81
60258;BME280;46115;44.484;11.314;2023-03-22T09:25:53;100424.38;;;30.78;29.10
60258;BME280;46115;44.484;11.314;2023-03-22T09:29:59;100430.25;;;30.82;27.62
60258;BME280;46115;44.484;11.314;2023-03-22T09:34:03;100426.72;;;31.47;26.70
60258;BME280;46115;44.484;11.314;2023-03-22T09:38:06;100419.69;;;31.98;26.35
60258;BME280;46115;44.484;11.314;2023-03-22T09:42:22;100410.81;;;33.85;24.20
60258;BME280;46115;44.484;11.314;2023-03-22T09:46:29;100402.53;;;32.35;25.20
60258;BME280;46115;44.484;11.314;2023-03-22T09:50:40;100401.72;;;32.60;24.71
60258;BME280;46115;44.484;11.314;2023-03-22T09:54:45;100409.47;;;31.73;25.56
60258;BME280;46115;44.484;11.314;2023-03-22T09:58:51;100409.63;;;28.29;29.79
60258;BME280;46115;44.484;11.314;2023-03-22T10:03:00;100400.19;;;28.25;31.11
60258;BME280;46115;44.484;11.314;2023-03-22T10:07:13;100400.09;;;26.07;33.72
60258;BME280;46115;44.484;11.314;2023-03-22T10:11:25;100380.84;;;25.39;34.98
60258;BME280;46115;44.484;11.314;2023-03-22T10:15:35;100385.25;;;23.58;38.43
60258;BME280;46115;44.484;11.314;2023-03-22T10:19:48;100366.09;;;23.69;38.97
60258;BME280;46115;44.484;11.314;2023-03-22T10:23:56;100371.25;;;22.31;39.43
60258;BME280;46115;44.484;11.314;2023-03-22T10:28:00;100367.47;;;22.95;40.74
60258;BME280;46115;44.484;11.314;2023-03-22T10:32:13;100374.38;;;22.80;41.45
60258;BME280;46115;44.484;11.314;2023-03-22T10:36:20;100368.09;;;22.71;40.26
60258;BME280;46115;44.484;11.314;2023-03-22T10:40:28;100361.31;;;22.32;41.46
60258;BME280;46115;44.484;11.314;2023-03-22T10:44:36;100367.41;;;20.95;41.47
60258;BME280;46115;44.484;11.314;2023-03-22T10:48:41;100365.81;;;21.12;43.47
60258;BME280;46115;44.484;11.314;2023-03-22T10:52:48;100356.53;;;21.43;42.88
60258;BME280;46115;44.484;11.314;2023-03-22T10:56:54;100351.94;;;21.16;43.27
60258;BME280;46115;44.484;11.314;2023-03-22T11:00:57;100347.56;;;21.25;44.12
60258;BME280;46115;44.484;11.314;2023-03-22T11:05:03;100343.88;;;21.26;43.61
60258;BME280;46115;44.484;11.314;2023-03-22T11:09:12;100325.88;;;20.61;45.67
60258;BME280;46115;44.484;11.314;2023-03-22T11:13:18;100325.97;;;20.98;46.23
60258;BME280;46115;44.484;11.314;2023-03-22T11:17:23;100331.03;;;21.01;45.96
60258;BME280;46115;44.484;11.314;2023-03-22T11:21:29;100330.72;;;21.13;45.44
60258;BME280;46115;44.484;11.314;2023-03-22T11:25:34;100327.28;;;20.65;47.25
60258;BME280;46115;44.484;11.314;2023-03-22T11:29:44;100317.97;;;20.49;46.21
60258;BME280;46115;44.484;11.314;2023-03-22T11:33:54;100316.25;;;20.29;43.71
60258;BME280;46115;44.484;11.314;2023-03-22T11:37:57;100304.31;;;19.74;44.18
60258;BME280;46115;44.484;11.314;2023-03-22T11:42:04;100314.41;;;20.68;44.14
60258;BME280;46115;44.484;11.314;2023-03-22T11:46:09;100309.03;;;20.68;43.73
60258;BME280;46115;44.484;11.314;2023-03-22T11:50:25;100308.88;;;20.12;44.01
60258;BME280;46115;44.484;11.314;2023-03-22T11:54:33;100307.50;;;20.27;43.89
60258;BME280;46115;44.484;11.314;2023-03-22T11:58:49;100305.69;;;20.57;43.31
60258;BME280;46115;44.484;11.314;2023-03-22T12:03:00;100288.28;;;20.41;43.55
60258;BME280;46115;44.484;11.314;2023-03-22T12:07:10;100297.28;;;20.79;40.93
60258;BME280;46115;44.484;11.314;2023-03-22T12:11:19;100281.47;;;19.99;44.17
60258;BME280;46115;44.484;11.314;2023-03-22T12:15:28;100280.94;;;20.63;43.97
60258;BME280;46115;44.484;11.314;2023-03-22T12:19:45;100274.72;;;20.23;43.39
60258;BME280;46115;44.484;11.314;2023-03-22T12:27:53;100270.41;;;19.53;41.76
60258;BME280;46115;44.484;11.314;2023-03-22T12:32:01;100264.09;;;20.03;42.55
60258;BME280;46115;44.484;11.314;2023-03-22T12:36:09;100246.72;;;19.68;43.69
60258;BME280;46115;44.484;11.314;2023-03-22T12:40:21;100249.56;;;19.86;43.49
60258;BME280;46115;44.484;11.314;2023-03-22T12:44:26;100246.00;;;19.76;41.71
60258;BME280;46115;44.484;11.314;2023-03-22T12:48:37;100223.16;;;19.81;42.23
60258;BME280;46115;44.484;11.314;2023-03-22T12:52:44;100247.03;;;20.23;42.25
60258;BME280;46115;44.484;11.314;2023-03-22T12:56:49;100248.72;;;19.95;43.18
60258;BME280;46115;44.484;11.314;2023-03-22T13:00:54;100236.41;;;20.12;41.60
60258;BME280;46115;44.484;11.314;2023-03-22T13:04:59;100251.56;;;20.22;41.35
60258;BME280;46115;44.484;11.314;2023-03-22T13:09:13;100243.66;;;20.21;42.30
60258;BME280;46115;44.484;11.314;2023-03-22T13:13:33;100235.59;;;19.82;43.02
60258;BME280;46115;44.484;11.314;2023-03-22T13:17:43;100226.84;;;19.80;43.72
60258;BME280;46115;44.484;11.314;2023-03-22T13:21:47;100227.84;;;20.18;42.96
60258;BME280;46115;44.484;11.314;2023-03-22T13:26:03;100217.78;;;20.01;42.84
60258;BME280;46115;44.484;11.314;2023-03-22T13:30:14;100220.78;;;20.17;42.55
60258;BME280;46115;44.484;11.314;2023-03-22T13:34:20;100206.91;;;19.54;42.72
60258;BME280;46115;44.484;11.314;2023-03-22T13:38:24;100202.56;;;19.82;42.23
60258;BME280;46115;44.484;11.314;2023-03-22T13:42:35;100200.84;;;20.00;44.13
60258;BME280;46115;44.484;11.314;2023-03-22T13:46:48;100193.50;;;19.63;45.68
60258;BME280;46115;44.484;11.314;2023-03-22T13:50:51;100210.59;;;20.11;44.56
60258;BME280;46115;44.484;11.314;2023-03-22T13:54:56;100199.00;;;19.72;43.83
60258;BME280;46115;44.484;11.314;2023-03-22T13:59:02;100201.84;;;19.99;42.49
60258;BME280;46115;44.484;11.314;2023-03-22T14:03:11;100205.94;;;20.22;42.41
60258;BME280;46115;44.484;11.314;2023-03-22T14:07:20;100188.72;;;20.15;42.27
60258;BME280;46115;44.484;11.314;2023-03-22T14:11:27;100190.81;;;20.02;40.86
60258;BME280;46115;44.484;11.314;2023-03-22T14:15:36;100193.38;;;19.94;40.91
60258;BME280;46115;44.484;11.314;2023-03-22T14:19:40;100180.91;;;20.32;39.20
60258;BME280;46115;44.484;11.314;2023-03-22T14:23:46;100177.53;;;20.20;40.35
60258;BME280;46115;44.484;11.314;2023-03-22T14:27:49;100172.03;;;20.02;40.67
60258;BME280;46115;44.484;11.314;2023-03-22T14:31:58;100165.97;;;20.19;40.19
60258;BME280;46115;44.484;11.314;2023-03-22T14:36:03;100154.78;;;20.24;41.89
60258;BME280;46115;44.484;11.314;2023-03-22T14:40:28;100150.56;;;20.02;41.46
60258;BME280;46115;44.484;11.314;2023-03-22T14:44:38;100143.53;;;20.01;41.72
60258;BME280;46115;44.484;11.314;2023-03-22T14:48:47;100129.28;;;19.81;41.80
60258;BME280;46115;44.484;11.314;2023-03-22T14:52:51;100099.91;;;19.99;41.62
60258;BME280;46115;44.484;11.314;2023-03-22T14:56:58;100107.53;;;19.75;41.07
60258;BME280;46115;44.484;11.314;2023-03-22T15:01:07;100120.78;;;20.05;40.69
60258;BME280;46115;44.484;11.314;2023-03-22T15:05:15;100123.59;;;20.13;39.84
60258;BME280;46115;44.484;11.314;2023-03-22T15:09:19;100119.94;;;20.14;39.82
60258;BME280;46115;44.484;11.314;2023-03-22T15:13:22;100125.00;;;20.08;39.59
60258;BME280;46115;44.484;11.314;2023-03-22T15:17:25;100116.59;;;19.83;39.55
60258;BME280;46115;44.484;11.314;2023-03-22T15:21:31;100135.34;;;19.93;39.65
60258;BME280;46115;44.484;11.314;2023-03-22T15:25:34;100115.25;;;20.07;40.20
60258;BME280;46115;44.484;11.314;2023-03-22T15:29:40;100112.63;;;19.87;40.99
60258;BME280;46115;44.484;11.314;2023-03-22T15:33:43;100110.38;;;19.83;41.21
60258;BME280;46115;44.484;11.314;2023-03-22T15:37:48;100104.72;;;19.86;41.50
60258;BME280;46115;44.484;11.314;2023-03-22T15:41:56;100101.69;;;20.08;41.74
60258;BME280;46115;44.484;11.314;2023-03-22T15:46:11;100109.47;;;20.11;42.01
60258;BME280;46115;44.484;11.314;2023-03-22T15:50:16;100101.91;;;19.78;42.68
60258;BME280;46115;44.484;11.314;2023-03-22T15:54:27;100102.88;;;19.77;42.78
60258;BME280;46115;44.484;11.314;2023-03-22T15:58:33;100116.44;;;19.75;42.74
60258;BME280;46115;44.484;11.314;2023-03-22T16:02:49;100111.22;;;19.74;43.03
60258;BME280;46115;44.484;11.314;2023-03-22T16:06:52;100101.06;;;19.58;43.05
60258;BME280;46115;44.484;11.314;2023-03-22T16:10:57;100108.81;;;19.51;42.75
60258;BME280;46115;44.484;11.314;2023-03-22T16:15:00;100104.47;;;19.60;42.67
60258;BME280;46115;44.484;11.314;2023-03-22T16:19:02;100103.47;;;19.61;42.56
60258;BME280;46115;44.484;11.314;2023-03-22T16:23:09;100103.44;;;19.51;42.38
60258;BME280;46115;44.484;11.314;2023-03-22T16:27:17;100105.28;;;19.51;42.38
60258;BME280;46115;44.484;11.314;2023-03-22T16:31:21;100102.88;;;19.48;42.18
60258;BME280;46115;44.484;11.314;2023-03-22T16:35:24;100107.09;;;19.31;41.89
60258;BME280;46115;44.484;11.314;2023-03-22T16:39:27;100102.84;;;19.38;42.25
60258;BME280;46115;44.484;11.314;2023-03-22T16:43:31;100109.75;;;19.41;42.40
60258;BME280;46115;44.484;11.314;2023-03-22T16:47:33;100116.13;;;19.20;43.14
60258;BME280;46115;44.484;11.314;2023-03-22T16:51:36;100108.06;;;19.11;43.12
60258;BME280;46115;44.484;11.314;2023-03-22T16:55:39;100107.50;;;19.17;43.32
60258;BME280;46115;44.484;11.314;2023-03-22T16:59:43;100114.69;;;19.16;43.60
60258;BME280;46115;44.484;11.314;2023-03-22T17:03:47;100108.56;;;18.95;43.90
60258;BME280;46115;44.484;11.314;2023-03-22T17:07:51;100100.25;;;18.88;44.79
60258;BME280;46115;44.484;11.314;2023-03-22T17:11:55;100111.09;;;18.87;45.38
60258;BME280;46115;44.484;11.314;2023-03-22T17:15:59;100106.59;;;18.87;46.09
60258;BME280;46115;44.484;11.314;2023-03-22T17:20:03;100110.03;;;18.68;46.57
60258;BME280;46115;44.484;11.314;2023-03-22T17:24:06;100121.47;;;18.70;47.19
60258;BME280;46115;44.484;11.314;2023-03-22T17:28:10;100119.16;;;18.35;48.54
60258;BME280;46115;44.484;11.314;2023-03-22T17:32:15;100120.94;;;18.25;48.87
60258;BME280;46115;44.484;11.314;2023-03-22T17:36:17;100125.25;;;18.17;49.15
60258;BME280;46115;44.484;11.314;2023-03-22T17:40:21;100129.63;;;17.97;49.36
60258;BME280;46115;44.484;11.314;2023-03-22T17:44:24;100123.84;;;17.92;49.81
60258;BME280;46115;44.484;11.314;2023-03-22T17:48:32;100131.59;;;17.95;50.17
60258;BME280;46115;44.484;11.314;2023-03-22T17:52:34;100125.00;;;17.78;51.06
60258;BME280;46115;44.484;11.314;2023-03-22T17:56:37;100143.13;;;17.63;51.83
60258;BME280;46115;44.484;11.314;2023-03-22T18:00:39;100142.09;;;17.55;51.84
60258;BME280;46115;44.484;11.314;2023-03-22T23:06:09;100245.44;;;14.47;57.50
60258;BME280;46115;44.484;11.314;2023-03-22T23:10:12;100251.28;;;14.52;58.26
60258;BME280;46115;44.484;11.314;2023-03-22T23:14:20;100217.66;;;14.25;58.19
60258;BME280;46115;44.484;11.314;2023-03-22T23:18:30;100249.56;;;14.38;58.38
60258;BME280;46115;44.484;11.314;2023-03-22T23:22:34;100246.78;;;14.27;59.08
60258;BME280;46115;44.484;11.314;2023-03-22T23:26:36;100252.22;;;14.25;59.04
60258;BME280;46115;44.484;11.314;2023-03-22T23:30:39;100242.59;;;14.10;59.77
60258;BME280;46115;44.484;11.314;2023-03-22T23:34:41;100244.34;;;14.24;59.84
60258;BME280;46115;44.484;11.314;2023-03-22T23:38:50;100247.44;;;14.30;59.21
60258;BME280;46115;44.484;11.314;2023-03-22T23:42:53;100243.34;;;14.12;59.76
60258;BME280;46115;44.484;11.314;2023-03-22T23:46:56;100248.13;;;14.07;59.88
60258;BME280;46115;44.484;11.314;2023-03-22T23:50:58;100238.44;;;14.06;59.75
60258;BME280;46115;44.484;11.314;2023-03-22T23:55:04;100239.69;;;14.00;60.14
60258;BME280;46115;44.484;11.314;2023-03-22T23:59:07;100244.63;;;14.19;60.23
